Weather at Block Island State Airport

Public forecast

Using degrees Fahrenheit for public forecast. Weather courtesy of forecast.io.

Current aviation weather report (METAR) for Block Island State Airport

Report is more than 6 hours old.

2022/11/14 14:56 (retrieved 2 years ago)

KBID 141456Z AUTO 32011G22KT 10SM CLR 04/M06 A3026 RMK AO2 SLP248 T00441061 51021

Closest aviation forecast (TAF) to Block Island State Airport

Forecast is more than 12 hours old.

Closest forecast is Groton New London Airport, 23.2 nm (43.0 km) WNW.

2023/02/22 18:24 (retrieved 1 year ago)

TAF KGON 221722Z 2218/2318 23007KT P6SM OVC100 FM222200 18005KT 6SM -RA BR SCT025 OVC050 TEMPO 2222/2223 -RASN OVC015 FM222300 10005KT 5SM -RA OVC010 FM230000 09007KT 5SM -RA BR OVC008 FM230500 06006KT 3SM -RADZ BR OVC006 FM231200 06004KT 1SM -DZ BR OVC007